KLNS

Lancaster Airport

Lancaster, Pennsylvania, USA
METAR KLNS 101453Z 29007KT 9SM OVC025 M01/M05 A3017 RMK AO2 SLP222 T10061050 51015
Observed Flight Rules
Dec-10 @ 14:53 UTC (25 minutes ago) Marginal Visual Flight Rules
Wind Visibility Clouds
290° at 7 knots 9 miles
  • Overcast at 2,500' AGL
Temperatures Readings
Current -1°C / 30°F
Dewpoint -5°C / 23°F
Humidity 75%
Altimeter 30.17" Hg
Pressure 1022.2 hPa
Elevation 125
METAR KLNS 101453Z 29007KT 9SM OVC025 M01/M05 A3017 RMK AO2 SLP222 T10061050 51015
Observed Flight Rules
Dec-10 @ 14:53 UTC
(25 minutes ago)
MVFR
Wind Visibility
290° at 7 knots 9 miles
Clouds
  • Overcast at 2,500' AGL
Temperature Dewpoint
-1°C / 30°F -5°C / 23°F
Humidity Altimeter Pressure
75% 30.17" Hg 1022.2 hPa